Time;durP1;ratioP1;P1;durP2;ratioP2;P2;SDS_P1;SDS_P2;PMS_P1;PMS_P2;Temp;Humidity;BMP_temperature;BMP_pressure;BME280_temperature;BME280_humidity;BME280_pressure;Samples;Min_cycle;Max_cycle;Signal;HPM_P1;HPM_P2
2021/06/08 00:00:21;;;;;;;11.57;10.33;;;16.40;99.90;;;;;;5045418;28;20443;-77
2021/06/08 00:02:50;;;;;;;11.53;10.00;;;16.40;99.90;;;;;;5042937;28;20572;-77
2021/06/08 00:05:24;;;;;;;10.80;9.80;;;16.40;99.90;;;;;;5024683;28;20437;-77
2021/06/08 00:07:50;;;;;;;12.80;11.60;;;16.40;99.90;;;;;;5045116;28;20423;-77
2021/06/08 00:10:19;;;;;;;11.27;10.10;;;16.40;99.90;;;;;;5043547;28;20943;-77
2021/06/08 00:12:46;;;;;;;10.47;9.43;;;16.40;99.90;;;;;;5040471;28;20437;-77
2021/06/08 00:15:14;;;;;;;10.60;9.50;;;16.40;99.90;;;;;;5035156;28;20973;-78
2021/06/08 00:17:46;;;;;;;11.03;10.03;;;16.30;99.90;;;;;;5053614;28;20580;-77
2021/06/08 00:20:15;;;;;;;12.70;10.13;;;16.40;99.90;;;;;;5044759;28;20435;-78
2021/06/08 00:22:46;;;;;;;11.27;10.17;;;16.30;99.90;;;;;;5037375;28;20490;-77
2021/06/08 00:25:13;;;;;;;11.73;10.53;;;16.40;99.90;;;;;;5008640;28;20957;-77
2021/06/08 00:27:39;;;;;;;13.00;10.40;;;16.30;99.90;;;;;;5033357;28;20520;-77
2021/06/08 00:30:05;;;;;;;12.90;10.63;;;16.40;99.90;;;;;;5042408;28;20492;-77
2021/06/08 00:32:32;;;;;;;10.93;9.83;;;16.30;99.90;;;;;;5048161;28;20465;-77
2021/06/08 00:34:59;;;;;;;11.73;9.93;;;16.30;99.90;;;;;;5032500;28;20570;-77
2021/06/08 00:37:25;;;;;;;10.37;9.37;;;16.30;99.90;;;;;;5034794;28;20497;-78
2021/06/08 00:39:52;;;;;;;10.47;9.53;;;16.30;99.90;;;;;;5023050;28;20803;-77
2021/06/08 00:42:33;;;;;;;10.07;9.07;;;16.30;99.90;;;;;;5033483;28;20432;-77
2021/06/08 00:45:05;;;;;;;10.37;9.47;;;16.20;99.90;;;;;;5051377;28;20427;-77
2021/06/08 00:47:31;;;;;;;10.40;9.50;;;16.20;99.90;;;;;;5040307;28;20434;-77
2021/06/08 00:49:57;;;;;;;10.60;9.50;;;16.10;99.90;;;;;;5041828;28;20439;-77
2021/06/08 00:52:23;;;;;;;9.70;8.80;;;16.10;99.90;;;;;;5037688;28;20468;-77
2021/06/08 00:54:52;;;;;;;12.43;9.33;;;16.10;99.90;;;;;;5051946;28;20470;-77
2021/06/08 00:57:20;;;;;;;12.97;11.67;;;16.10;99.90;;;;;;5035713;28;20517;-77
2021/06/08 00:59:54;;;;;;;10.97;9.80;;;16.10;99.90;;;;;;5032969;28;20420;-77
2021/06/08 01:02:22;;;;;;;12.13;10.57;;;16.00;99.90;;;;;;5051466;28;20430;-77
2021/06/08 01:04:50;;;;;;;12.37;11.17;;;16.00;99.90;;;;;;5047327;28;20422;-77
2021/06/08 01:07:19;;;;;;;11.77;10.67;;;16.00;99.90;;;;;;5045495;28;20469;-77
2021/06/08 01:09:47;;;;;;;11.07;9.97;;;15.90;99.90;;;;;;5034313;28;20447;-77
2021/06/08 01:12:17;;;;;;;13.67;10.97;;;15.80;99.90;;;;;;5024215;28;20920;-77
2021/06/08 01:14:48;;;;;;;11.53;10.33;;;15.80;99.90;;;;;;5028202;28;20474;-77
2021/06/08 01:17:17;;;;;;;12.37;11.17;;;15.80;99.90;;;;;;5052465;28;20879;-78
2021/06/08 01:19:43;;;;;;;13.23;10.83;;;15.80;99.90;;;;;;5021187;28;20427;-77
2021/06/08 01:22:10;;;;;;;12.07;10.97;;;15.80;99.90;;;;;;5033258;28;20451;-77
2021/06/08 01:24:36;;;;;;;10.17;9.13;;;15.70;99.90;;;;;;5037126;28;20461;-77
2021/06/08 01:27:05;;;;;;;10.63;9.63;;;15.70;99.90;;;;;;5043321;28;20778;-77
2021/06/08 01:29:32;;;;;;;11.67;10.57;;;15.70;99.90;;;;;;5028082;28;20450;-77
2021/06/08 01:32:00;;;;;;;12.10;10.93;;;15.70;99.90;;;;;;5043059;28;20448;-77
2021/06/08 01:34:26;;;;;;;13.33;11.93;;;15.60;99.90;;;;;;5049456;28;20877;-77
2021/06/08 01:36:52;;;;;;;15.17;13.77;;;15.60;99.90;;;;;;5053690;28;20430;-77
2021/06/08 01:39:19;;;;;;;13.97;11.30;;;15.60;99.90;;;;;;5034315;28;20450;-77
2021/06/08 01:41:45;;;;;;;12.50;11.07;;;15.50;99.90;;;;;;5051022;28;20430;-77
2021/06/08 01:44:17;;;;;;;12.33;11.20;;;15.40;99.90;;;;;;5051801;28;20429;-77
2021/06/08 01:46:45;;;;;;;13.97;12.57;;;15.40;99.90;;;;;;5059265;28;20523;-77
2021/06/08 01:49:11;;;;;;;12.37;11.10;;;15.40;99.90;;;;;;5019243;28;20433;-77
2021/06/08 01:51:40;;;;;;;13.00;11.90;;;15.40;99.90;;;;;;5053876;28;20438;-77
2021/06/08 01:54:27;;;;;;;14.60;11.20;;;15.40;99.90;;;;;;5053029;28;20468;-77
2021/06/08 01:57:15;;;;;;;12.60;11.00;;;15.30;99.90;;;;;;5052924;28;20759;-77
2021/06/08 02:00:00;;;;;;;11.30;10.20;;;15.30;99.90;;;;;;5059337;28;20425;-77
2021/06/08 02:02:38;;;;;;;14.63;9.93;;;15.30;99.90;;;;;;5053356;28;20984;-77
2021/06/08 02:05:20;;;;;;;11.50;10.40;;;15.30;99.90;;;;;;5053994;28;20765;-77
2021/06/08 02:08:14;;;;;;;11.30;10.20;;;15.20;99.90;;;;;;5040367;28;21190;-77
2021/06/08 02:10:49;;;;;;;12.40;11.20;;;15.20;99.90;;;;;;5044719;28;20437;-77
2021/06/08 02:14:01;;;;;;;13.07;10.83;;;15.20;99.90;;;;;;5057802;28;20532;-77
2021/06/08 02:16:44;;;;;;;12.30;10.73;;;15.10;99.90;;;;;;4981712;28;20495;-77
2021/06/08 02:19:14;;;;;;;13.73;12.47;;;15.00;99.90;;;;;;4992045;28;20449;-77
2021/06/08 02:21:46;;;;;;;13.10;11.23;;;15.00;99.90;;;;;;4991460;28;20464;-77
2021/06/08 02:24:21;;;;;;;12.13;10.87;;;15.00;99.90;;;;;;4957108;28;20577;-77
2021/06/08 02:26:52;;;;;;;11.10;9.93;;;14.90;99.90;;;;;;4975960;28;20534;-77
2021/06/08 02:29:20;;;;;;;12.40;10.87;;;14.90;99.90;;;;;;4991965;28;20929;-77
2021/06/08 02:31:48;;;;;;;12.37;11.17;;;14.90;99.90;;;;;;4959042;28;20429;-77
2021/06/08 02:34:18;;;;;;;11.80;10.60;;;14.90;99.90;;;;;;4978609;28;20812;-77
2021/06/08 02:36:47;;;;;;;12.30;11.20;;;14.80;99.90;;;;;;5005757;28;20434;-77
2021/06/08 02:39:14;;;;;;;11.40;10.30;;;14.80;99.90;;;;;;5008457;28;20787;-77
2021/06/08 02:41:43;;;;;;;12.03;10.93;;;14.70;99.90;;;;;;4999753;28;20921;-77
2021/06/08 02:44:13;;;;;;;11.90;10.77;;;14.70;99.90;;;;;;5005693;28;20467;-77
2021/06/08 02:46:42;;;;;;;11.60;10.43;;;14.60;99.90;;;;;;5022697;28;20879;-77
2021/06/08 02:49:09;;;;;;;11.63;10.53;;;14.60;99.90;;;;;;5069582;28;20429;-77
2021/06/08 02:51:36;;;;;;;12.43;11.33;;;14.60;99.90;;;;;;5039549;28;20962;-77
2021/06/08 02:54:06;;;;;;;12.57;11.20;;;14.60;99.90;;;;;;5060897;28;20794;-77
2021/06/08 02:56:35;;;;;;;10.63;9.63;;;14.60;99.90;;;;;;5061754;28;20440;-77
2021/06/08 02:59:05;;;;;;;11.17;10.10;;;14.60;99.90;;;;;;5045967;28;20430;-77
2021/06/08 03:01:38;;;;;;;13.00;11.47;;;14.50;99.90;;;;;;5059418;28;20527;-78
2021/06/08 03:04:08;;;;;;;14.20;12.90;;;14.50;99.90;;;;;;5067037;28;20487;-77
2021/06/08 03:06:44;;;;;;;12.70;11.50;;;14.50;99.90;;;;;;5060701;28;20751;-77
2021/06/08 03:09:19;;;;;;;10.80;9.67;;;14.50;99.90;;;;;;5037403;28;20437;-77
2021/06/08 03:11:56;;;;;;;11.67;10.43;;;14.40;99.90;;;;;;5034914;28;20498;-78
2021/06/08 03:14:24;;;;;;;10.93;9.90;;;14.40;99.90;;;;;;5047879;28;20900;-77
2021/06/08 03:16:59;;;;;;;11.33;10.27;;;14.50;99.90;;;;;;5066804;28;20540;-77
2021/06/08 03:19:35;;;;;;;11.90;10.80;;;14.40;99.90;;;;;;5027538;28;20658;-77
2021/06/08 03:22:13;;;;;;;11.57;10.33;;;14.40;99.90;;;;;;5054063;28;20987;-77
2021/06/08 03:24:42;;;;;;;11.27;10.17;;;14.40;99.90;;;;;;5056672;28;20449;-77
2021/06/08 03:27:10;;;;;;;13.70;12.33;;;14.30;99.90;;;;;;5048849;28;20458;-77
2021/06/08 03:29:39;;;;;;;11.37;10.27;;;14.30;99.90;;;;;;5060846;28;20430;-77
2021/06/08 03:32:09;;;;;;;13.60;12.30;;;14.20;99.90;;;;;;5036101;28;20534;-77
2021/06/08 03:34:39;;;;;;;13.43;12.23;;;14.30;99.90;;;;;;5051446;28;20470;-77
2021/06/08 03:37:06;;;;;;;11.13;10.13;;;14.20;99.90;;;;;;5045264;28;20564;-77
2021/06/08 03:39:37;;;;;;;14.10;10.90;;;14.20;99.90;;;;;;5037182;28;20963;-77
2021/06/08 03:42:04;;;;;;;11.33;10.23;;;14.20;99.90;;;;;;5021133;28;20457;-77
2021/06/08 03:44:33;;;;;;;11.97;10.57;;;14.20;99.90;;;;;;5043282;28;20431;-77
2021/06/08 03:47:00;;;;;;;10.50;9.60;;;14.20;99.90;;;;;;5057253;28;20434;-78
2021/06/08 03:49:26;;;;;;;12.90;11.53;;;14.10;99.90;;;;;;5048574;28;20447;-77
2021/06/08 03:51:54;;;;;;;12.80;11.30;;;14.20;99.90;;;;;;5037577;28;20807;-77
2021/06/08 03:54:25;;;;;;;12.13;10.93;;;14.20;99.90;;;;;;5074384;28;20982;-77
2021/06/08 03:56:58;;;;;;;11.30;10.10;;;14.20;99.90;;;;;;5027329;28;20525;-77
2021/06/08 03:59:30;;;;;;;12.23;10.90;;;14.20;99.90;;;;;;5037511;28;20517;-77
2021/06/08 04:01:57;;;;;;;13.13;11.90;;;14.20;99.90;;;;;;5036552;28;20428;-77
2021/06/08 04:04:24;;;;;;;13.23;11.40;;;14.30;99.90;;;;;;5018952;28;20426;-77
2021/06/08 04:06:50;;;;;;;13.40;11.40;;;14.20;99.90;;;;;;5074628;28;20470;-77
2021/06/08 04:09:22;;;;;;;11.70;10.60;;;14.30;99.90;;;;;;5065759;28;20452;-77
2021/06/08 04:11:51;;;;;;;13.90;11.53;;;14.30;99.90;;;;;;5037715;28;20525;-77
2021/06/08 04:14:18;;;;;;;13.30;12.00;;;14.30;99.90;;;;;;5049037;28;20481;-80
2021/06/08 04:16:49;;;;;;;12.40;11.20;;;14.40;99.90;;;;;;5052199;28;20525;-79
2021/06/08 04:19:18;;;;;;;15.93;11.93;;;14.30;99.90;;;;;;5054435;28;20480;-79
2021/06/08 04:21:48;;;;;;;14.03;12.70;;;14.40;99.90;;;;;;5020610;28;20437;-79
2021/06/08 04:24:17;;;;;;;12.47;11.23;;;14.40;99.90;;;;;;5023237;28;20439;-79
2021/06/08 04:26:43;;;;;;;13.00;11.77;;;14.40;99.90;;;;;;5063907;28;20576;-79
2021/06/08 04:29:09;;;;;;;16.37;12.80;;;14.50;99.90;;;;;;5054626;28;20442;-78
2021/06/08 04:31:35;;;;;;;15.60;14.00;;;14.60;99.90;;;;;;5051522;28;20470;-79
2021/06/08 04:34:01;;;;;;;15.40;12.80;;;14.60;99.90;;;;;;5031328;28;21026;-79
2021/06/08 04:36:29;;;;;;;13.60;12.23;;;14.70;99.90;;;;;;5029538;28;20516;-79
2021/06/08 04:38:55;;;;;;;14.87;13.47;;;14.80;99.90;;;;;;5038518;28;20964;-79
2021/06/08 04:41:22;;;;;;;15.07;12.80;;;14.80;99.90;;;;;;5049878;28;20471;-79
2021/06/08 04:43:50;;;;;;;13.50;12.07;;;14.90;99.90;;;;;;4966034;28;20942;-79
2021/06/08 04:46:17;;;;;;;13.67;12.30;;;15.00;99.90;;;;;;5025057;28;20470;-79
2021/06/08 04:48:44;;;;;;;14.60;13.00;;;15.00;99.90;;;;;;5035464;28;20435;-79
2021/06/08 04:51:13;;;;;;;13.23;11.83;;;15.10;99.90;;;;;;5042587;28;20432;-79
2021/06/08 04:53:41;;;;;;;14.03;12.57;;;15.10;99.90;;;;;;5032560;28;20478;-79
2021/06/08 04:56:11;;;;;;;14.20;12.90;;;15.20;99.90;;;;;;5043264;28;20722;-79
2021/06/08 04:58:38;;;;;;;14.40;12.90;;;15.30;99.90;;;;;;5042210;28;20514;-78
2021/06/08 05:01:07;;;;;;;14.53;13.00;;;15.30;99.90;;;;;;5028518;28;20900;-79
2021/06/08 05:03:41;;;;;;;15.40;13.30;;;15.40;99.90;;;;;;5016644;28;20469;-79
2021/06/08 05:06:32;;;;;;;15.10;13.30;;;15.40;99.90;;;;;;5028895;28;20439;-77
2021/06/08 05:09:07;;;;;;;14.87;13.37;;;15.50;99.90;;;;;;5039673;28;20437;-79
2021/06/08 05:11:54;;;;;;;17.10;15.50;;;15.50;99.90;;;;;;5032755;28;20445;-79
2021/06/08 05:14:24;;;;;;;14.43;12.83;;;15.70;99.90;;;;;;5041730;28;20477;-79
2021/06/08 05:16:50;;;;;;;16.13;14.43;;;15.80;99.90;;;;;;5029173;28;20777;-79
2021/06/08 05:19:18;;;;;;;18.53;13.33;;;15.90;99.90;;;;;;5025104;28;20875;-79
2021/06/08 05:21:49;;;;;;;15.67;12.83;;;16.00;99.90;;;;;;5025096;28;21069;-78
2021/06/08 05:24:16;;;;;;;15.57;14.07;;;16.10;99.90;;;;;;5035519;28;20439;-79
2021/06/08 05:26:45;;;;;;;16.80;13.90;;;16.20;99.90;;;;;;5053203;28;20485;-78
2021/06/08 05:29:17;;;;;;;14.10;12.63;;;16.30;99.90;;;;;;5030103;28;20431;-79
2021/06/08 05:31:44;;;;;;;14.70;13.30;;;16.40;99.90;;;;;;5014111;28;20513;-79
2021/06/08 05:34:14;;;;;;;17.33;15.53;;;16.60;99.90;;;;;;5015489;28;20641;-79
2021/06/08 05:36:42;;;;;;;16.23;14.73;;;16.70;99.90;;;;;;5034124;28;20424;-78
2021/06/08 05:39:09;;;;;;;18.00;14.67;;;16.80;99.90;;;;;;5023510;28;20430;-78
2021/06/08 05:41:38;;;;;;;16.10;14.30;;;16.80;99.90;;;;;;5013396;28;20538;-78
2021/06/08 05:44:05;;;;;;;16.03;14.33;;;16.90;99.90;;;;;;5033384;28;20431;-78
2021/06/08 05:46:37;;;;;;;15.40;13.90;;;16.80;99.90;;;;;;5027547;28;20914;-78
2021/06/08 05:49:05;;;;;;;17.97;15.33;;;16.80;99.90;;;;;;5025281;28;20509;-79
2021/06/08 05:51:33;;;;;;;18.40;16.60;;;16.90;99.90;;;;;;5000045;28;20514;-78
2021/06/08 05:54:04;;;;;;;17.30;14.47;;;17.00;99.90;;;;;;5015534;28;20480;-79
2021/06/08 05:56:36;;;;;;;16.40;14.80;;;17.10;99.90;;;;;;4997244;28;20523;-79
2021/06/08 05:59:03;;;;;;;17.90;16.10;;;17.20;99.90;;;;;;5012786;28;20783;-79
2021/06/08 06:01:29;;;;;;;19.93;15.73;;;17.40;99.90;;;;;;5028779;28;20518;-79
2021/06/08 06:03:57;;;;;;;17.70;15.80;;;17.40;99.90;;;;;;5030471;28;20437;-79
2021/06/08 06:06:25;;;;;;;17.17;15.37;;;17.60;99.90;;;;;;5033629;28;20489;-79
2021/06/08 06:08:54;;;;;;;19.43;16.23;;;17.60;99.90;;;;;;5012353;28;20449;-79
2021/06/08 06:11:23;;;;;;;18.10;16.20;;;17.70;99.90;;;;;;4997337;28;20498;-79
2021/06/08 06:14:00;;;;;;;17.90;16.10;;;17.50;99.90;;;;;;5032164;28;20460;-79
2021/06/08 06:16:30;;;;;;;18.60;16.20;;;17.50;99.90;;;;;;5028626;28;20427;-78
2021/06/08 06:19:00;;;;;;;21.80;17.23;;;17.50;99.90;;;;;;5028918;28;20510;-78
2021/06/08 06:21:29;;;;;;;20.90;17.13;;;17.40;99.90;;;;;;5016097;28;21471;-78
2021/06/08 06:23:58;;;;;;;19.57;17.47;;;17.40;99.90;;;;;;5031959;28;20851;-80
2021/06/08 06:26:30;;;;;;;20.87;18.70;;;17.50;99.90;;;;;;5014259;28;20440;-80
2021/06/08 06:28:59;;;;;;;19.17;17.20;;;17.60;99.90;;;;;;5024855;28;20476;-80
2021/06/08 06:31:26;;;;;;;19.23;17.20;;;17.50;99.90;;;;;;5033149;28;20432;-79
2021/06/08 06:33:57;;;;;;;18.40;16.70;;;17.60;99.90;;;;;;5052169;28;20475;-79
2021/06/08 06:36:28;;;;;;;19.93;17.93;;;17.70;99.90;;;;;;5057382;28;20770;-80
2021/06/08 06:39:01;;;;;;;22.67;18.57;;;17.80;99.90;;;;;;5050954;28;20420;-81
2021/06/08 06:41:32;;;;;;;20.40;18.30;;;17.90;99.90;;;;;;5040708;28;20537;-80
2021/06/08 06:44:01;;;;;;;21.47;19.17;;;18.00;99.90;;;;;;5027154;28;20428;-80
2021/06/08 06:46:31;;;;;;;21.47;19.37;;;18.10;99.90;;;;;;5021988;28;20456;-81
2021/06/08 06:48:57;;;;;;;21.23;19.03;;;18.30;99.90;;;;;;5063665;28;20892;-80
2021/06/08 06:51:24;;;;;;;22.77;20.40;;;18.40;99.90;;;;;;5068384;28;20436;-77
2021/06/08 06:53:55;;;;;;;24.23;21.20;;;18.50;99.90;;;;;;5052546;28;20483;-77
2021/06/08 06:56:22;;;;;;;23.90;20.23;;;18.60;99.90;;;;;;5050145;28;20908;-80
2021/06/08 06:58:52;;;;;;;21.70;19.60;;;18.80;99.90;;;;;;5059947;28;20442;-80
2021/06/08 07:01:25;;;;;;;21.37;19.30;;;18.90;99.90;;;;;;5068044;28;20458;-79
2021/06/08 07:03:55;;;;;;;21.00;18.90;;;19.10;99.90;;;;;;5052030;28;21029;-78
2021/06/08 07:06:22;;;;;;;23.50;21.00;;;19.20;99.90;;;;;;5046410;28;20437;-78
2021/06/08 07:08:53;;;;;;;24.07;21.77;;;19.40;99.90;;;;;;5038396;28;20425;-79
2021/06/08 07:11:20;;;;;;;23.83;20.30;;;19.40;99.90;;;;;;5052050;28;20445;-77
2021/06/08 07:13:50;;;;;;;22.63;20.27;;;19.50;99.90;;;;;;5061216;28;20465;-77
2021/06/08 07:16:25;;;;;;;23.30;21.00;;;19.60;99.90;;;;;;5051367;28;20434;-80
2021/06/08 07:18:54;;;;;;;23.30;21.00;;;19.60;99.90;;;;;;5036985;28;20451;-80
2021/06/08 07:21:22;;;;;;;23.53;21.23;;;19.80;99.90;;;;;;5043157;28;20432;-80
2021/06/08 07:23:52;;;;;;;22.27;20.10;;;19.80;99.90;;;;;;5034818;28;20910;-77
2021/06/08 07:26:22;;;;;;;23.60;21.30;;;19.90;99.90;;;;;;5057502;28;20457;-77
2021/06/08 07:28:49;;;;;;;23.27;21.07;;;19.90;99.90;;;;;;5053699;28;20501;-78
2021/06/08 07:31:38;;;;;;;23.57;21.17;;;20.00;99.90;;;;;;5016996;28;20449;-78
2021/06/08 07:34:11;;;;;;;22.93;20.30;;;20.00;99.90;;;;;;5040618;28;20490;-78
2021/06/08 07:36:47;;;;;;;22.90;20.50;;;20.10;99.90;;;;;;5021927;28;20765;-78
2021/06/08 07:39:21;;;;;;;24.73;22.33;;;20.20;99.90;;;;;;5032339;28;20481;-78
2021/06/08 07:41:56;;;;;;;26.83;24.33;;;20.30;99.90;;;;;;5020839;28;20801;-80
2021/06/08 07:44:35;;;;;;;27.73;23.97;;;20.40;99.90;;;;;;5021221;28;20443;-80
2021/06/08 07:47:05;;;;;;;27.17;23.07;;;20.60;99.90;;;;;;5027596;28;20984;-79
2021/06/08 07:49:34;;;;;;;25.90;23.20;;;20.80;99.90;;;;;;5026334;28;20441;-80
2021/06/08 07:52:02;;;;;;;25.43;22.93;;;20.90;99.90;;;;;;5010912;28;20460;-80
2021/06/08 07:54:30;;;;;;;25.17;22.73;;;21.10;99.90;;;;;;5050359;28;20478;-79
2021/06/08 07:56:56;;;;;;;27.90;25.10;;;21.10;99.90;;;;;;5042445;28;20760;-79
2021/06/08 07:59:28;;;;;;;26.50;23.90;;;21.20;99.90;;;;;;5041883;28;20427;-79
2021/06/08 08:01:56;;;;;;;24.20;21.73;;;21.40;99.90;;;;;;5040431;28;20748;-79
2021/06/08 08:04:24;;;;;;;24.73;22.03;;;21.50;99.90;;;;;;5036034;28;20438;-78
2021/06/08 08:06:54;;;;;;;23.70;21.40;;;21.60;99.90;;;;;;5041143;28;20425;-79
2021/06/08 08:09:22;;;;;;;23.90;21.60;;;21.60;99.90;;;;;;5041942;28;20430;-80
2021/06/08 08:11:53;;;;;;;25.30;22.80;;;21.80;99.90;;;;;;5035451;28;20472;-79
2021/06/08 08:14:23;;;;;;;22.40;20.30;;;21.90;99.90;;;;;;5024734;28;20905;-80
2021/06/08 08:16:50;;;;;;;21.80;19.80;;;22.00;99.90;;;;;;5037190;28;20438;-79
2021/06/08 08:19:19;;;;;;;26.90;24.60;;;22.20;99.90;;;;;;5029748;28;20518;-79
2021/06/08 08:21:46;;;;;;;22.47;20.40;;;22.20;99.90;;;;;;5024218;28;21019;-78
2021/06/08 08:24:14;;;;;;;18.83;16.93;;;22.10;99.90;;;;;;5028889;28;20516;-78
2021/06/08 08:26:43;;;;;;;18.93;17.23;;;22.20;99.90;;;;;;5041613;28;20428;-78
2021/06/08 08:29:09;;;;;;;20.10;18.40;;;22.20;99.90;;;;;;5033630;28;20929;-78
2021/06/08 08:31:38;;;;;;;21.27;19.37;;;22.30;99.90;;;;;;5041987;28;20426;-77
2021/06/08 08:34:06;;;;;;;21.27;19.37;;;22.40;99.90;;;;;;5023626;28;20557;-78
2021/06/08 08:36:37;;;;;;;20.83;19.03;;;22.40;99.90;;;;;;5028988;28;20438;-79
2021/06/08 08:39:09;;;;;;;22.60;20.60;;;22.30;99.90;;;;;;5032252;28;20438;-78
2021/06/08 08:41:36;;;;;;;20.73;18.73;;;22.30;99.90;;;;;;5034720;28;20429;-79
2021/06/08 08:44:07;;;;;;;20.70;18.80;;;22.20;99.90;;;;;;5032924;28;20445;-80
2021/06/08 08:46:36;;;;;;;20.23;18.37;;;22.10;99.90;;;;;;5005328;28;20457;-80
2021/06/08 08:49:05;;;;;;;22.27;20.00;;;22.00;99.90;;;;;;5041698;28;20433;-79
2021/06/08 08:51:33;;;;;;;21.30;19.30;;;21.90;99.90;;;;;;5033745;28;20453;-80
2021/06/08 08:54:01;;;;;;;22.47;20.47;;;21.80;99.90;;;;;;5015197;28;20522;-80
2021/06/08 08:56:33;;;;;;;20.90;18.80;;;21.80;99.90;;;;;;4991393;28;20441;-80
2021/06/08 08:59:15;;;;;;;21.20;19.20;;;21.80;99.90;;;;;;5034274;28;20453;-79
2021/06/08 09:01:45;;;;;;;20.73;18.57;;;21.80;99.90;;;;;;5031367;28;20424;-79
2021/06/08 09:04:14;;;;;;;20.07;18.13;;;21.80;99.90;;;;;;5034731;28;20432;-79
2021/06/08 09:06:44;;;;;;;19.00;17.30;;;21.70;99.90;;;;;;5033922;28;20899;-80
2021/06/08 09:09:11;;;;;;;19.00;17.40;;;21.80;99.90;;;;;;5033204;28;20470;-79
2021/06/08 09:11:40;;;;;;;20.83;19.03;;;22.00;99.90;;;;;;5034105;28;20455;-79
2021/06/08 09:14:15;;;;;;;20.43;18.73;;;22.10;99.90;;;;;;5016237;28;20959;-79
2021/06/08 09:16:41;;;;;;;19.90;18.00;;;22.10;99.90;;;;;;5033977;28;20434;-80
2021/06/08 09:19:12;;;;;;;18.90;17.40;;;22.20;99.90;;;;;;4994761;28;20434;-79
2021/06/08 09:21:40;;;;;;;15.13;13.73;;;22.30;99.90;;;;;;5035008;28;20918;-79
2021/06/08 09:24:20;;;;;;;26.73;24.27;;;22.30;99.90;;;;;;5034140;28;20438;-79
2021/06/08 09:26:52;;;;;;;24.03;21.93;;;22.30;99.90;;;;;;5027567;28;20434;-79
2021/06/08 09:29:37;;;;;;;22.67;20.57;;;22.40;99.90;;;;;;5030761;28;20487;-78
2021/06/08 09:32:24;;;;;;;21.93;20.03;;;22.50;99.90;;;;;;5015806;28;20822;-79
2021/06/08 09:34:57;;;;;;;23.10;20.80;;;22.50;99.90;;;;;;5022926;28;20935;-79
2021/06/08 09:37:42;;;;;;;25.03;22.63;;;22.40;99.90;;;;;;5003796;28;20439;-80
2021/06/08 09:40:24;;;;;;;23.53;21.50;;;22.30;99.90;;;;;;5033268;28;20504;-80
2021/06/08 09:43:03;;;;;;;22.53;20.33;;;22.40;99.40;;;;;;5025908;28;20583;-79
2021/06/08 09:45:42;;;;;;;22.63;20.37;;;22.40;99.90;;;;;;5039687;28;20436;-79
2021/06/08 09:48:09;;;;;;;22.40;20.23;;;22.30;98.60;;;;;;5006080;28;20536;-79
2021/06/08 09:50:40;;;;;;;22.43;20.30;;;22.30;98.70;;;;;;5010448;28;20468;-79
2021/06/08 09:53:25;;;;;;;23.73;20.20;;;22.30;99.50;;;;;;5034100;28;20443;-78
2021/06/08 09:56:05;;;;;;;22.20;20.20;;;22.50;99.90;;;;;;5033485;28;20466;-80
2021/06/08 09:58:33;;;;;;;19.33;17.60;;;22.60;99.90;;;;;;5033549;28;20956;-79
2021/06/08 10:01:11;;;;;;;20.87;18.73;;;22.80;99.90;;;;;;5031391;28;20978;-80
2021/06/08 10:03:44;;;;;;;21.47;19.33;;;23.00;99.70;;;;;;5032924;28;20442;-80
2021/06/08 10:06:13;;;;;;;19.57;17.77;;;23.20;99.80;;;;;;5032938;28;20439;-80
2021/06/08 10:08:59;;;;;;;19.53;17.93;;;23.30;99.20;;;;;;5025471;28;20425;-77
2021/06/08 10:11:29;;;;;;;18.50;16.83;;;23.40;98.30;;;;;;5012091;28;20446;-77
2021/06/08 10:14:20;;;;;;;19.27;17.47;;;23.50;97.80;;;;;;5040506;28;20947;-80
2021/06/08 10:16:59;;;;;;;17.37;16.10;;;23.60;97.30;;;;;;5019018;28;20423;-80
2021/06/08 10:19:26;;;;;;;18.40;16.90;;;23.90;97.40;;;;;;5031436;28;20431;-78
2021/06/08 10:21:55;;;;;;;20.00;18.10;;;24.10;98.90;;;;;;5033273;28;20958;-78
2021/06/08 10:24:28;;;;;;;22.03;20.13;;;24.40;97.30;;;;;;5026145;28;20436;-81
2021/06/08 10:26:56;;;;;;;23.93;21.73;;;24.50;95.90;;;;;;5028033;28;20436;-77
2021/06/08 10:29:28;;;;;;;21.60;19.80;;;24.60;95.40;;;;;;5019022;28;20777;-78
2021/06/08 10:31:55;;;;;;;22.63;20.73;;;25.20;95.70;;;;;;5028415;28;20778;-78
2021/06/08 10:34:24;;;;;;;24.93;22.73;;;25.80;93.30;;;;;;5031684;28;20516;-78
2021/06/08 10:36:53;;;;;;;24.97;22.87;;;25.80;92.00;;;;;;5037465;28;20442;-78
2021/06/08 10:39:25;;;;;;;26.03;23.63;;;25.40;92.10;;;;;;5049643;28;20480;-78
2021/06/08 10:41:51;;;;;;;26.37;24.17;;;25.20;91.60;;;;;;5052182;28;20492;-78
2021/06/08 10:44:22;;;;;;;24.47;22.07;;;25.10;92.50;;;;;;5050244;28;20761;-78
2021/06/08 10:46:53;;;;;;;24.10;22.20;;;24.90;93.30;;;;;;5048362;28;20802;-78
2021/06/08 10:49:40;;;;;;;26.63;24.50;;;24.80;94.10;;;;;;5047439;28;20427;-78
2021/06/08 10:52:13;;;;;;;23.97;22.07;;;24.70;93.70;;;;;;5048977;28;20428;-78
2021/06/08 10:54:44;;;;;;;25.50;23.43;;;24.70;94.30;;;;;;5056161;28;20982;-78
2021/06/08 10:57:16;;;;;;;25.53;23.43;;;24.70;94.70;;;;;;5050764;28;20528;-78
2021/06/08 10:59:47;;;;;;;24.43;22.00;;;24.90;94.10;;;;;;5052362;28;20422;-78
2021/06/08 11:02:46;;;;;;;21.77;20.10;;;24.90;94.00;;;;;;5032441;28;20430;-78
2021/06/08 11:05:16;;;;;;;24.67;22.67;;;24.90;94.10;;;;;;5036603;28;20492;-78
2021/06/08 11:07:49;;;;;;;24.80;22.70;;;24.90;93.60;;;;;;5057582;28;20467;-78
2021/06/08 11:10:29;;;;;;;25.67;23.53;;;24.80;92.90;;;;;;5046452;28;20450;-78
2021/06/08 11:13:22;;;;;;;26.07;23.87;;;24.70;93.70;;;;;;5049551;28;20455;-78
2021/06/08 11:15:51;;;;;;;25.07;23.00;;;24.60;95.20;;;;;;5013195;28;20473;-78
2021/06/08 11:18:17;;;;;;;24.03;22.10;;;24.70;94.80;;;;;;5056370;28;20434;-81
2021/06/08 11:20:43;;;;;;;25.70;23.70;;;24.70;95.20;;;;;;5054422;28;20433;-80
2021/06/08 11:23:29;;;;;;;24.90;22.80;;;24.90;94.30;;;;;;5051877;28;20195;-79
2021/06/08 11:25:55;;;;;;;27.03;24.97;;;25.00;93.80;;;;;;5050671;28;20456;-80
2021/06/08 11:28:21;;;;;;;27.53;25.23;;;25.10;93.20;;;;;;5049818;28;20814;-80
2021/06/08 11:30:55;;;;;;;29.10;26.73;;;25.20;93.60;;;;;;5052055;28;20798;-79
2021/06/08 11:33:41;;;;;;;30.53;28.27;;;25.40;92.70;;;;;;5031638;28;20970;-79
2021/06/08 11:36:18;;;;;;;31.17;28.63;;;25.40;92.30;;;;;;5024085;28;20439;-80
2021/06/08 11:38:46;;;;;;;30.87;28.37;;;25.50;91.00;;;;;;5042830;28;20438;-80
2021/06/08 11:41:13;;;;;;;28.23;26.07;;;26.00;87.10;;;;;;5036707;28;20436;-81
2021/06/08 11:43:42;;;;;;;26.70;24.80;;;26.40;83.80;;;;;;5031521;28;20423;-81
2021/06/08 11:46:11;;;;;;;26.37;24.37;;;26.60;85.60;;;;;;5016156;28;20413;-79
2021/06/08 11:48:43;;;;;;;25.33;23.53;;;26.70;88.10;;;;;;5034195;28;20428;-80
2021/06/08 11:51:15;;;;;;;27.13;25.20;;;27.20;83.70;;;;;;5032707;28;20453;-80
2021/06/08 11:53:56;;;;;;;26.97;25.13;;;27.50;83.40;;;;;;5035575;28;20509;-80
2021/06/08 11:56:40;;;;;;;25.30;23.60;;;27.90;79.90;;;;;;5034434;28;20431;-78
2021/06/08 11:59:07;;;;;;;24.30;22.70;;;28.00;79.80;;;;;;5028367;28;20439;-80
2021/06/08 12:01:38;;;;;;;24.87;23.07;;;28.30;77.00;;;;;;5035429;28;20435;-79
2021/06/08 12:04:05;;;;;;;23.57;21.97;;;28.60;76.40;;;;;;5032663;28;20446;-79
2021/06/08 12:06:58;;;;;;;23.77;22.20;;;28.50;77.10;;;;;;5010729;28;20430;-82
2021/06/08 12:09:26;;;;;;;26.40;24.33;;;28.50;75.70;;;;;;5033407;28;20462;-82
2021/06/08 12:11:55;;;;;;;27.93;25.60;;;28.20;75.50;;;;;;5040670;28;20440;-79
2021/06/08 12:14:25;;;;;;;25.70;24.00;;;27.60;76.30;;;;;;5039618;28;20485;-78
2021/06/08 12:16:53;;;;;;;25.90;24.20;;;27.20;81.20;;;;;;5040996;28;20858;-78
2021/06/08 12:19:28;;;;;;;29.70;27.50;;;27.00;82.10;;;;;;5034856;28;20451;-78
2021/06/08 12:22:02;;;;;;;28.70;26.47;;;26.90;83.20;;;;;;5034683;28;21676;-82
2021/06/08 12:24:28;;;;;;;28.80;26.67;;;26.90;80.90;;;;;;5036768;28;20433;-79
2021/06/08 12:27:05;;;;;;;29.67;27.57;;;26.80;80.60;;;;;;5035624;28;20451;-79
2021/06/08 12:29:31;;;;;;;26.00;24.20;;;26.70;81.90;;;;;;5040794;28;20516;-79
2021/06/08 12:32:10;;;;;;;26.60;24.60;;;27.00;82.90;;;;;;5021683;28;20445;-79
2021/06/08 12:34:38;;;;;;;26.67;24.67;;;27.40;78.70;;;;;;5057768;28;20485;-82
2021/06/08 12:37:04;;;;;;;27.87;25.47;;;27.90;77.90;;;;;;5036619;28;20490;-79
2021/06/08 12:39:33;;;;;;;25.37;23.23;;;28.40;79.70;;;;;;5035522;28;20777;-80
2021/06/08 12:42:14;;;;;;;26.43;24.60;;;28.90;74.10;;;;;;5026550;28;20905;-79
2021/06/08 12:44:42;;;;;;;24.57;22.63;;;29.00;70.00;;;;;;5026711;28;20426;-79
2021/06/08 12:47:08;;;;;;;23.90;22.17;;;29.10;70.90;;;;;;5034248;28;20430;-79